Time;durP1;ratioP1;P1;durP2;ratioP2;P2;SDS_P1;SDS_P2;PMS_P1;PMS_P2;Temp;Humidity;BMP_temperature;BMP_pressure;BME280_temperature;BME280_humidity;BME280_pressure;Samples;Min_cycle;Max_cycle;Signal;HPM_P1;HPM_P2
2022/05/24 00:01:29;;;;;;;21.70;10.45;;;14.60;99.90;;;;;;5027242;28;20490;-77
2022/05/24 00:03:56;;;;;;;20.63;9.52;;;14.50;99.90;;;;;;5021602;28;20049;-77
2022/05/24 00:06:30;;;;;;;19.83;9.43;;;14.50;99.90;;;;;;5019993;28;20493;-77
2022/05/24 00:08:56;;;;;;;15.85;8.60;;;14.50;99.90;;;;;;5019075;28;20486;-77
2022/05/24 00:11:22;;;;;;;17.98;8.45;;;14.50;99.90;;;;;;5009265;28;20103;-77
2022/05/24 00:13:47;;;;;;;17.52;7.10;;;14.50;99.90;;;;;;5012480;28;20421;-77
2022/05/24 00:16:13;;;;;;;22.35;6.93;;;14.40;99.90;;;;;;5016390;28;20040;-77
2022/05/24 00:18:38;;;;;;;22.58;7.03;;;14.40;99.90;;;;;;5010851;28;20033;-77
2022/05/24 00:21:05;;;;;;;22.48;6.45;;;14.40;99.90;;;;;;5011195;28;20040;-77
2022/05/24 00:23:32;;;;;;;25.20;6.90;;;14.40;99.90;;;;;;5011720;28;20404;-77
2022/05/24 00:26:02;;;;;;;26.45;7.30;;;14.40;99.90;;;;;;5020400;28;20018;-77
2022/05/24 00:28:29;;;;;;;29.50;7.15;;;14.40;99.90;;;;;;5011002;28;20046;-77
2022/05/24 00:30:55;;;;;;;27.38;7.85;;;14.40;99.90;;;;;;5020670;28;20837;-77
2022/05/24 00:33:21;;;;;;;29.40;8.05;;;14.30;99.90;;;;;;5020405;28;20029;-77
2022/05/24 00:35:48;;;;;;;35.35;8.48;;;14.30;99.90;;;;;;5011386;28;20496;-77
2022/05/24 00:38:20;;;;;;;26.15;8.85;;;14.30;99.90;;;;;;5026337;28;20101;-77
2022/05/24 00:40:45;;;;;;;35.50;10.82;;;14.30;99.90;;;;;;5013096;28;20455;-77
2022/05/24 00:43:21;;;;;;;29.30;12.13;;;14.30;99.90;;;;;;5025152;28;20108;-78
2022/05/24 00:45:51;;;;;;;30.98;14.80;;;14.40;99.90;;;;;;5013930;28;20022;-77
2022/05/24 00:48:37;;;;;;;35.50;14.50;;;14.40;99.90;;;;;;5022211;28;20030;-77
2022/05/24 00:51:06;;;;;;;29.15;14.68;;;14.40;99.90;;;;;;5010635;28;20469;-77
2022/05/24 00:53:48;;;;;;;36.83;14.43;;;14.30;99.90;;;;;;5021822;28;20654;-77
2022/05/24 00:56:36;;;;;;;35.38;13.75;;;14.30;99.90;;;;;;5010439;28;20018;-78
2022/05/24 00:59:07;;;;;;;31.92;12.65;;;14.30;99.90;;;;;;5011046;28;20037;-78
2022/05/24 01:01:40;;;;;;;28.00;11.23;;;14.30;99.90;;;;;;5026506;28;20029;-77
2022/05/24 01:04:11;;;;;;;34.95;12.85;;;14.20;99.90;;;;;;5020363;28;20483;-77
2022/05/24 01:06:38;;;;;;;31.45;12.05;;;14.20;99.90;;;;;;5029565;28;20075;-77
2022/05/24 01:09:08;;;;;;;27.77;11.77;;;14.20;99.90;;;;;;5021014;28;20022;-78
2022/05/24 01:11:38;;;;;;;27.00;12.00;;;14.10;99.90;;;;;;5016278;28;20018;-78
2022/05/24 01:14:07;;;;;;;22.50;11.93;;;14.20;99.90;;;;;;5022027;28;20370;-77
2022/05/24 01:16:33;;;;;;;27.45;11.63;;;14.10;99.90;;;;;;5013840;28;20030;-78
2022/05/24 01:18:59;;;;;;;28.75;11.38;;;14.10;99.90;;;;;;5032585;28;20112;-76
2022/05/24 01:21:25;;;;;;;27.33;12.27;;;14.10;99.90;;;;;;5030685;28;20111;-77
2022/05/24 01:24:08;;;;;;;27.60;11.95;;;14.10;99.90;;;;;;5014681;28;20049;-78
2022/05/24 01:26:53;;;;;;;30.77;12.75;;;14.10;99.90;;;;;;5023583;28;20120;-77
2022/05/24 01:29:21;;;;;;;25.55;12.13;;;14.10;99.90;;;;;;5030578;28;20398;-78
2022/05/24 01:37:18;;;;;;;30.48;11.77;;;14.10;99.90;;;;;;5020562;28;20053;-77
2022/05/24 01:39:47;;;;;;;27.50;12.32;;;14.10;99.90;;;;;;5018413;28;20042;-77
2022/05/24 01:42:14;;;;;;;25.52;12.27;;;14.10;99.90;;;;;;5026550;28;20100;-77
2022/05/24 01:44:51;;;;;;;26.48;12.77;;;14.10;99.90;;;;;;5031522;28;20022;-78
2022/05/24 01:47:19;;;;;;;31.65;13.27;;;14.10;99.90;;;;;;5024890;28;20030;-77
2022/05/24 01:49:48;;;;;;;30.38;12.68;;;14.00;99.90;;;;;;5033119;28;20393;-77
2022/05/24 01:52:29;;;;;;;33.78;13.02;;;14.00;99.90;;;;;;5021564;28;20034;-77
2022/05/24 01:55:01;;;;;;;26.65;13.40;;;14.00;99.90;;;;;;5013827;28;20053;-77
2022/05/24 01:57:32;;;;;;;35.92;14.52;;;14.00;99.90;;;;;;5021189;28;20409;-78
2022/05/24 02:00:01;;;;;;;27.45;13.35;;;13.90;99.90;;;;;;5015882;28;20117;-77
2022/05/24 02:02:27;;;;;;;29.95;14.32;;;14.00;99.90;;;;;;5020732;28;20080;-77
2022/05/24 02:04:54;;;;;;;28.17;14.30;;;13.90;99.90;;;;;;5024710;28;20032;-77
2022/05/24 02:07:22;;;;;;;35.53;15.75;;;14.00;99.90;;;;;;5027868;28;20034;-78
2022/05/24 02:09:54;;;;;;;25.77;13.90;;;14.00;99.90;;;;;;5024234;28;20036;-77
2022/05/24 02:12:41;;;;;;;29.20;13.80;;;14.00;99.90;;;;;;5014273;28;20092;-77
2022/05/24 02:15:17;;;;;;;34.45;15.80;;;14.00;99.90;;;;;;5028517;28;20033;-77
2022/05/24 02:18:04;;;;;;;31.05;14.68;;;13.90;99.90;;;;;;5012999;28;20065;-77
2022/05/24 02:20:33;;;;;;;32.80;15.45;;;14.00;99.90;;;;;;5025221;28;20104;-77
2022/05/24 02:22:59;;;;;;;38.50;17.15;;;14.00;99.90;;;;;;5022687;28;20068;-77
2022/05/24 02:25:38;;;;;;;33.30;16.40;;;14.00;99.90;;;;;;5016124;28;20033;-77
2022/05/24 02:28:08;;;;;;;35.97;17.17;;;14.00;99.90;;;;;;5017482;28;20456;-77
2022/05/24 02:30:35;;;;;;;32.88;16.42;;;14.00;99.90;;;;;;5026759;28;20059;-78
2022/05/24 02:33:01;;;;;;;35.75;16.52;;;14.00;99.90;;;;;;5020114;28;20053;-77
2022/05/24 02:35:27;;;;;;;35.28;17.45;;;14.00;99.90;;;;;;5032711;28;20504;-77
2022/05/24 02:37:53;;;;;;;36.88;15.90;;;14.00;99.90;;;;;;5032361;28;20060;-77
2022/05/24 02:43:03;;;;;;;32.03;15.48;;;14.00;99.90;;;;;;5013821;28;20144;-77
2022/05/24 02:45:28;;;;;;;31.15;15.18;;;14.00;99.90;;;;;;5012515;28;20112;-77
2022/05/24 02:47:54;;;;;;;32.40;14.98;;;14.00;99.90;;;;;;5021044;28;20112;-77
2022/05/24 02:50:21;;;;;;;35.38;13.80;;;14.00;99.90;;;;;;5012175;28;20022;-77
2022/05/24 02:52:47;;;;;;;31.20;13.07;;;14.00;99.90;;;;;;5030528;28;20026;-77
2022/05/24 02:55:13;;;;;;;31.85;12.13;;;13.90;99.90;;;;;;5024505;28;20030;-77
2022/05/24 02:57:40;;;;;;;22.88;10.10;;;13.90;99.90;;;;;;5025398;28;20026;-77
2022/05/24 03:00:12;;;;;;;30.02;10.60;;;13.90;99.90;;;;;;5026362;28;20389;-77
2022/05/24 03:02:41;;;;;;;30.73;10.43;;;13.90;99.90;;;;;;5030503;28;20377;-76
2022/05/24 03:05:10;;;;;;;20.05;9.35;;;13.80;99.90;;;;;;5031851;28;20026;-76
2022/05/24 03:10:20;;;;;;;23.42;7.32;;;13.80;99.90;;;;;;5012698;28;20091;-76
2022/05/24 03:15:29;;;;;;;23.35;6.57;;;13.80;99.90;;;;;;5015809;28;20091;-76
2022/05/24 03:17:55;;;;;;;18.63;5.35;;;13.70;99.90;;;;;;5022882;28;20026;-76
2022/05/24 03:20:21;;;;;;;25.73;4.93;;;13.70;99.90;;;;;;5021731;28;20025;-76
2022/05/24 03:22:47;;;;;;;18.90;3.90;;;13.70;99.90;;;;;;5024207;28;20034;-76
2022/05/24 03:25:13;;;;;;;19.48;4.10;;;13.70;99.90;;;;;;5017160;28;20089;-76
2022/05/24 03:27:39;;;;;;;17.67;4.07;;;13.60;99.90;;;;;;5029296;28;20022;-76
2022/05/24 03:30:06;;;;;;;23.55;4.10;;;13.60;99.90;;;;;;5012061;28;20026;-76
2022/05/24 03:32:33;;;;;;;24.42;4.00;;;13.60;99.90;;;;;;5012391;28;20049;-76
2022/05/24 03:35:06;;;;;;;15.07;3.90;;;13.60;99.90;;;;;;5011672;28;20022;-76
2022/05/24 03:37:31;;;;;;;19.45;4.22;;;13.60;99.90;;;;;;5018272;28;20094;-77
2022/05/24 03:39:57;;;;;;;19.30;3.65;;;13.50;99.90;;;;;;5027844;28;20425;-76
2022/05/24 03:42:22;;;;;;;20.67;4.00;;;13.50;99.90;;;;;;5020933;28;20061;-76
2022/05/24 03:44:48;;;;;;;13.82;3.80;;;13.50;99.90;;;;;;5021391;28;20025;-76
2022/05/24 03:47:13;;;;;;;22.92;4.28;;;13.50;99.90;;;;;;5020759;28;20029;-76
2022/05/24 03:49:39;;;;;;;19.35;3.58;;;13.50;99.90;;;;;;5028786;28;20017;-76
2022/05/24 03:52:05;;;;;;;18.73;3.40;;;13.50;99.90;;;;;;5022876;28;20025;-76
2022/05/24 03:54:31;;;;;;;14.20;3.50;;;13.50;99.90;;;;;;5029638;28;20025;-76
2022/05/24 03:59:41;;;;;;;17.75;3.38;;;13.50;99.90;;;;;;5024341;28;20044;-76
2022/05/24 04:02:06;;;;;;;17.67;3.53;;;13.50;99.90;;;;;;5016948;28;20477;-77
2022/05/24 04:04:32;;;;;;;18.15;2.67;;;13.50;99.90;;;;;;5011221;28;20026;-76
2022/05/24 04:06:58;;;;;;;14.07;2.42;;;13.50;99.90;;;;;;5018659;28;20364;-76
2022/05/24 04:09:24;;;;;;;13.90;2.80;;;13.50;99.90;;;;;;5030878;28;20026;-76
2022/05/24 04:11:49;;;;;;;17.80;3.10;;;13.50;99.90;;;;;;5020540;28;20009;-76
2022/05/24 04:14:15;;;;;;;16.75;2.95;;;13.50;99.90;;;;;;5025425;28;20037;-75
2022/05/24 04:16:40;;;;;;;12.48;2.78;;;13.50;99.90;;;;;;5025299;28;20044;-76
2022/05/24 04:19:06;;;;;;;14.82;3.20;;;13.60;99.90;;;;;;5016608;28;20041;-76
2022/05/24 04:21:32;;;;;;;19.98;5.60;;;13.60;99.90;;;;;;5019662;28;20032;-76
2022/05/24 04:23:57;;;;;;;21.00;6.60;;;13.60;99.90;;;;;;5025765;28;20163;-76
2022/05/24 04:26:23;;;;;;;20.15;7.72;;;13.60;99.90;;;;;;5024858;28;20029;-76
2022/05/24 04:28:49;;;;;;;18.88;7.95;;;13.60;99.90;;;;;;5027391;28;20029;-76
2022/05/24 04:31:14;;;;;;;23.33;8.93;;;13.60;99.90;;;;;;5029370;28;20041;-76
2022/05/24 04:33:40;;;;;;;22.42;8.48;;;13.50;99.90;;;;;;5017240;28;20076;-76
2022/05/24 04:36:06;;;;;;;26.00;8.98;;;13.50;99.90;;;;;;5016503;28;20029;-76
2022/05/24 04:38:32;;;;;;;20.65;8.98;;;13.60;99.90;;;;;;5022102;28;20061;-76
2022/05/24 04:43:41;;;;;;;21.92;8.45;;;13.60;99.90;;;;;;5029820;28;20041;-77
2022/05/24 04:46:07;;;;;;;20.52;8.50;;;13.50;99.90;;;;;;5028539;28;20413;-77
2022/05/24 04:48:32;;;;;;;17.85;8.43;;;13.50;99.90;;;;;;5030116;28;20397;-76
2022/05/24 04:50:58;;;;;;;20.88;8.10;;;13.50;99.90;;;;;;5022283;28;20104;-76
2022/05/24 04:53:26;;;;;;;19.83;7.85;;;13.50;99.90;;;;;;5025488;28;20104;-77
2022/05/24 04:55:52;;;;;;;18.42;8.07;;;13.50;99.90;;;;;;5026015;28;20478;-76
2022/05/24 04:58:19;;;;;;;26.45;7.25;;;13.40;99.90;;;;;;5028408;28;20021;-76
2022/05/24 05:00:46;;;;;;;20.77;7.90;;;13.40;99.90;;;;;;5032783;28;20037;-76
2022/05/24 05:03:14;;;;;;;21.23;6.85;;;13.40;99.90;;;;;;5028665;28;20045;-76
2022/05/24 05:05:40;;;;;;;16.35;6.63;;;13.40;99.90;;;;;;5016199;28;20048;-76
2022/05/24 05:08:07;;;;;;;22.40;6.68;;;13.30;99.90;;;;;;5033634;28;20092;-77
2022/05/24 05:10:34;;;;;;;17.55;6.38;;;13.30;99.90;;;;;;5028828;28;20026;-77
2022/05/24 05:13:01;;;;;;;19.02;6.75;;;13.20;99.90;;;;;;5022504;28;20530;-77
2022/05/24 05:15:27;;;;;;;20.13;6.50;;;13.20;99.90;;;;;;5031272;28;20021;-77
2022/05/24 05:18:09;;;;;;;15.30;6.22;;;13.20;99.90;;;;;;5030176;28;20037;-77
2022/05/24 05:20:39;;;;;;;24.00;7.13;;;13.20;99.90;;;;;;5034896;28;20489;-77
2022/05/24 05:23:09;;;;;;;16.50;6.35;;;13.20;99.90;;;;;;5041093;28;20573;-77
2022/05/24 05:25:36;;;;;;;14.90;6.57;;;13.20;99.90;;;;;;5036407;28;20031;-77
2022/05/24 05:28:02;;;;;;;17.38;6.90;;;13.10;99.90;;;;;;5034999;28;20057;-77
2022/05/24 05:31:29;;;;;;;16.02;7.25;;;13.20;99.90;;;;;;5019993;28;20029;-77
2022/05/24 05:33:24;;;;;;;16.77;7.80;;;13.10;99.90;;;;;;5030149;28;20103;-77
2022/05/24 05:35:50;;;;;;;18.25;8.23;;;13.20;99.90;;;;;;5039337;28;20017;-76
2022/05/24 05:38:17;;;;;;;18.95;9.38;;;13.20;99.90;;;;;;5031214;28;20030;-76
2022/05/24 05:40:43;;;;;;;21.17;9.98;;;13.10;99.90;;;;;;5031089;28;20021;-75
2022/05/24 05:43:09;;;;;;;20.83;10.93;;;13.10;99.90;;;;;;5030529;28;20031;-76
2022/05/24 05:45:35;;;;;;;24.95;11.85;;;13.10;99.90;;;;;;5012048;28;20030;-76
2022/05/24 05:48:01;;;;;;;23.67;11.27;;;13.10;99.90;;;;;;5020976;28;20367;-75
2022/05/24 05:50:27;;;;;;;25.58;11.05;;;13.20;99.90;;;;;;5014620;28;20033;-76
2022/05/24 05:52:52;;;;;;;19.00;10.85;;;13.20;99.90;;;;;;5010550;28;20057;-76
2022/05/24 05:55:19;;;;;;;23.58;10.80;;;13.30;99.90;;;;;;5012717;28;20025;-76
2022/05/24 05:57:45;;;;;;;15.48;9.60;;;13.30;99.90;;;;;;5020453;28;20033;-76
2022/05/24 06:00:11;;;;;;;16.25;8.52;;;13.40;99.90;;;;;;5016978;28;20042;-76
2022/05/24 06:02:37;;;;;;;18.75;8.18;;;13.40;99.90;;;;;;5036057;28;20542;-77
2022/05/24 06:05:04;;;;;;;18.92;8.50;;;13.50;99.90;;;;;;5026110;28;20034;-76
2022/05/24 06:07:30;;;;;;;13.90;7.65;;;13.50;99.90;;;;;;5022073;28;20037;-76
2022/05/24 06:09:56;;;;;;;17.17;7.70;;;13.50;99.90;;;;;;5015699;28;20076;-76
2022/05/24 06:12:21;;;;;;;19.00;8.32;;;13.50;99.90;;;;;;5016480;28;20056;-75
2022/05/24 06:14:47;;;;;;;15.90;7.70;;;13.50;99.90;;;;;;5024349;28;20029;-76
2022/05/24 06:17:14;;;;;;;16.10;8.35;;;13.40;99.90;;;;;;5022619;28;20079;-75
2022/05/24 06:19:39;;;;;;;17.73;8.38;;;13.40;99.90;;;;;;5015062;28;20036;-77
2022/05/24 06:22:05;;;;;;;16.33;7.93;;;13.40;99.90;;;;;;5022442;28;20715;-76
2022/05/24 06:24:31;;;;;;;16.45;7.68;;;13.30;99.90;;;;;;5032044;28;20574;-76
2022/05/24 06:26:57;;;;;;;19.45;8.20;;;13.30;99.90;;;;;;5034251;28;20034;-77
2022/05/24 06:29:24;;;;;;;14.23;7.35;;;13.20;99.90;;;;;;5021259;28;20026;-78
2022/05/24 06:31:49;;;;;;;15.65;7.55;;;13.20;99.90;;;;;;5019717;28;20042;-78
2022/05/24 06:34:15;;;;;;;15.20;7.00;;;13.10;99.90;;;;;;5025818;28;20026;-78
2022/05/24 06:36:41;;;;;;;14.32;6.30;;;13.10;99.90;;;;;;5017271;28;20116;-77
2022/05/24 06:39:07;;;;;;;12.93;5.72;;;13.00;99.90;;;;;;5023129;28;20041;-77
2022/05/24 06:41:33;;;;;;;11.30;5.55;;;13.00;99.90;;;;;;5012569;28;20045;-77
2022/05/24 06:43:58;;;;;;;9.30;4.93;;;13.00;99.90;;;;;;5012521;28;20030;-77
2022/05/24 06:46:24;;;;;;;10.75;4.93;;;12.90;99.90;;;;;;5031784;28;20030;-77
2022/05/24 06:48:50;;;;;;;9.93;4.75;;;12.90;99.90;;;;;;5013653;28;20022;-77
2022/05/24 06:51:18;;;;;;;10.35;5.00;;;12.90;99.90;;;;;;5022779;28;20191;-77
2022/05/24 06:53:45;;;;;;;9.38;5.50;;;12.80;99.90;;;;;;5031197;28;20104;-77
2022/05/24 06:56:11;;;;;;;8.40;5.18;;;12.80;99.90;;;;;;5031382;28;20021;-77
2022/05/24 06:58:37;;;;;;;10.27;4.85;;;12.80;99.90;;;;;;5025435;28;20096;-77
2022/05/24 07:03:53;;;;;;;8.88;5.45;;;12.80;99.90;;;;;;5026711;28;20036;-77
2022/05/24 07:06:19;;;;;;;14.40;6.88;;;12.70;99.90;;;;;;5021192;28;20033;-76
2022/05/24 07:08:46;;;;;;;9.90;5.82;;;12.70;99.90;;;;;;5019878;28;20033;-76
2022/05/24 07:11:12;;;;;;;12.07;5.30;;;12.80;99.90;;;;;;5021298;28;20077;-76
2022/05/24 07:13:39;;;;;;;9.95;5.78;;;12.70;99.90;;;;;;5031765;28;20238;-77
2022/05/24 07:16:06;;;;;;;11.02;5.28;;;12.80;99.90;;;;;;5012106;28;20073;-77
2022/05/24 07:18:31;;;;;;;10.52;3.90;;;12.80;99.90;;;;;;5014963;28;20117;-77
2022/05/24 07:20:57;;;;;;;8.73;4.28;;;12.80;99.90;;;;;;5029219;28;20116;-77
2022/05/24 07:23:26;;;;;;;6.03;3.17;;;12.80;99.90;;;;;;5027678;28;20421;-75
2022/05/24 07:25:53;;;;;;;5.65;2.90;;;12.70;99.90;;;;;;5027112;28;20481;-75
2022/05/24 07:28:19;;;;;;;5.80;2.53;;;12.60;99.90;;;;;;5025301;28;20026;-75
2022/05/24 07:30:47;;;;;;;9.07;3.00;;;12.60;99.90;;;;;;5010187;28;20041;-76
2022/05/24 07:33:13;;;;;;;9.23;3.60;;;12.50;99.90;;;;;;5018253;28;20038;-75
2022/05/24 07:35:40;;;;;;;9.43;3.80;;;12.50;99.90;;;;;;5026615;28;20096;-77
2022/05/24 07:38:07;;;;;;;6.28;3.20;;;12.50;99.90;;;;;;5019735;28;20064;-77
2022/05/24 07:46:06;;;;;;;12.90;3.00;;;12.60;99.90;;;;;;5016856;28;20073;-77
2022/05/24 07:48:34;;;;;;;11.00;3.30;;;12.70;99.90;;;;;;5020292;28;20038;-77
2022/05/24 07:51:00;;;;;;;11.25;3.17;;;12.90;99.90;;;;;;5021910;28;20052;-77
2022/05/24 07:53:25;;;;;;;6.75;1.83;;;13.00;99.90;;;;;;5030395;28;20489;-77
2022/05/24 07:55:53;;;;;;;4.25;1.08;;;13.10;99.90;;;;;;5029270;28;20389;-77
2022/05/24 07:58:20;;;;;;;9.10;1.75;;;13.20;99.90;;;;;;5030840;28;20021;-77
2022/05/24 08:00:46;;;;;;;8.77;1.60;;;13.30;99.90;;;;;;5016806;28;20050;-77
2022/05/24 08:03:12;;;;;;;8.85;1.75;;;13.40;99.90;;;;;;5024725;28;20065;-78
2022/05/24 08:05:38;;;;;;;5.25;1.70;;;13.60;99.90;;;;;;5012245;28;20125;-75
2022/05/24 08:08:05;;;;;;;5.32;1.70;;;13.70;99.90;;;;;;5010829;28;20160;-77
2022/05/24 08:10:31;;;;;;;5.38;1.60;;;13.70;99.90;;;;;;5017459;28;20391;-77
2022/05/24 08:12:57;;;;;;;5.30;1.92;;;13.80;99.90;;;;;;5014949;28;20022;-77
2022/05/24 08:15:24;;;;;;;9.65;2.25;;;13.80;99.90;;;;;;5025179;28;20048;-77
2022/05/24 08:17:50;;;;;;;6.63;1.92;;;13.70;99.90;;;;;;5019386;28;20025;-77
2022/05/24 08:20:17;;;;;;;4.30;2.17;;;13.70;99.90;;;;;;5022011;28;20033;-77
2022/05/24 08:22:43;;;;;;;4.90;1.90;;;13.60;99.90;;;;;;5026278;28;20026;-77
2022/05/24 08:25:10;;;;;;;4.47;1.58;;;13.60;99.90;;;;;;5011521;28;20040;-77
2022/05/24 08:27:36;;;;;;;8.13;2.30;;;13.50;99.90;;;;;;5016687;28;20034;-77
2022/05/24 08:30:02;;;;;;;7.07;2.30;;;13.40;99.90;;;;;;5021157;28;20033;-77
2022/05/24 08:32:28;;;;;;;5.28;2.33;;;13.40;99.90;;;;;;5016898;28;20060;-78
2022/05/24 08:34:53;;;;;;;6.30;2.97;;;13.40;99.90;;;;;;5026200;28;20038;-77
2022/05/24 08:37:19;;;;;;;9.73;3.80;;;13.40;99.90;;;;;;5015717;28;20385;-77
2022/05/24 08:39:45;;;;;;;7.18;3.63;;;13.50;99.90;;;;;;5027505;28;20108;-77
2022/05/24 08:42:25;;;;;;;9.15;3.92;;;13.60;99.90;;;;;;5010616;28;20105;-78
2022/05/24 08:50:50;;;;;;;4.70;3.40;;;13.90;99.90;;;;;;5012505;28;20088;-77
2022/05/24 08:53:42;;;;;;;8.52;2.92;;;13.90;99.90;;;;;;5025559;28;20478;-77
2022/05/24 08:56:12;;;;;;;5.40;2.50;;;14.00;99.90;;;;;;5009911;28;20034;-78
2022/05/24 08:58:42;;;;;;;6.18;2.83;;;14.00;99.90;;;;;;5013393;28;20040;-77
2022/05/24 09:01:32;;;;;;;5.57;2.10;;;14.00;99.90;;;;;;5021437;28;20406;-78
2022/05/24 09:04:00;;;;;;;5.72;1.60;;;14.00;99.90;;;;;;5024575;28;20112;-76
2022/05/24 09:06:31;;;;;;;4.35;1.40;;;14.10;99.90;;;;;;5014721;28;20114;-77
2022/05/24 09:09:41;;;;;;;2.40;1.38;;;14.00;99.90;;;;;;5023783;28;20018;-77
2022/05/24 09:12:26;;;;;;;4.70;1.63;;;14.00;99.90;;;;;;5010896;28;20522;-78
2022/05/24 09:15:07;;;;;;;3.45;1.40;;;13.90;99.90;;;;;;5010410;28;20328;-76
2022/05/24 09:17:40;;;;;;;4.50;1.92;;;13.90;99.90;;;;;;5020516;28;20037;-77
2022/05/24 09:20:36;;;;;;;5.55;1.70;;;13.90;99.90;;;;;;5020080;28;20487;-78
2022/05/24 09:23:16;;;;;;;;;;;13.90;99.90;;;;;;5018460;28;20037;-78
2022/05/24 09:25:56;;;;;;;3.78;1.95;;;13.90;99.90;;;;;;5021383;28;19912;-78
2022/05/24 09:28:41;;;;;;;5.13;2.08;;;13.90;99.90;;;;;;5017730;28;20127;-75
2022/05/24 09:31:08;;;;;;;6.60;2.22;;;13.90;99.90;;;;;;5013888;28;20050;-76
2022/05/24 09:33:40;;;;;;;4.95;1.92;;;13.90;99.90;;;;;;5027123;28;20493;-77
2022/05/24 09:36:06;;;;;;;8.50;2.45;;;14.00;99.90;;;;;;5026245;28;20022;-77
2022/05/24 09:38:38;;;;;;;12.57;2.97;;;14.10;99.90;;;;;;5031303;28;20444;-76
2022/05/24 09:41:18;;;;;;;5.05;2.38;;;14.10;99.90;;;;;;5013733;28;20030;-77
2022/05/24 09:44:00;;;;;;;6.90;2.67;;;14.20;99.90;;;;;;5013659;28;20034;-77
2022/05/24 09:46:27;;;;;;;4.20;1.95;;;14.20;99.90;;;;;;5014006;28;20030;-77
2022/05/24 09:49:23;;;;;;;6.32;2.40;;;14.20;99.90;;;;;;5017427;28;20091;-78
2022/05/24 09:51:54;;;;;;;6.20;2.55;;;14.20;99.90;;;;;;5027171;28;20064;-78
2022/05/24 09:54:30;;;;;;;6.97;2.53;;;14.10;99.90;;;;;;5013496;28;20068;-79
2022/05/24 09:57:09;;;;;;;5.68;2.47;;;14.10;99.90;;;;;;5027069;28;20017;-78
2022/05/24 09:59:39;;;;;;;6.45;2.90;;;14.20;99.90;;;;;;5028551;28;20409;-78
2022/05/24 10:02:25;;;;;;;6.43;3.05;;;14.20;99.90;;;;;;5013411;28;20079;-79
2022/05/24 10:04:51;;;;;;;9.07;3.00;;;14.30;99.90;;;;;;5025573;28;20041;-76
2022/05/24 10:07:35;;;;;;;9.80;3.13;;;14.40;99.90;;;;;;5032028;28;20059;-78
2022/05/24 10:10:14;;;;;;;7.32;2.90;;;14.60;99.90;;;;;;5024847;28;20394;-77
2022/05/24 10:12:51;;;;;;;11.40;2.88;;;14.80;99.90;;;;;;5030179;28;20038;-78
2022/05/24 10:15:20;;;;;;;8.68;2.30;;;14.90;99.90;;;;;;5027207;28;20097;-79
2022/05/24 10:18:20;;;;;;;7.07;2.17;;;15.00;99.90;;;;;;5013309;28;20025;-77
2022/05/24 10:21:13;;;;;;;8.82;2.10;;;15.10;99.90;;;;;;4990729;28;20042;-77
2022/05/24 10:24:20;;;;;;;6.40;2.40;;;15.30;99.90;;;;;;4987593;28;20096;-78
2022/05/24 10:27:04;;;;;;;6.43;2.28;;;15.50;99.90;;;;;;4970947;28;20027;-78
2022/05/24 10:30:06;;;;;;;7.68;1.90;;;15.60;99.90;;;;;;4971069;28;20078;-78
2022/05/24 10:39:22;;;;;;;5.63;2.20;;;15.80;99.90;;;;;;4970043;28;20090;-77
2022/05/24 10:42:10;;;;;;;7.93;1.92;;;16.00;99.90;;;;;;4969671;28;20050;-77
2022/05/24 10:45:07;;;;;;;8.43;2.25;;;16.10;99.90;;;;;;4960740;28;20125;-77
2022/05/24 10:47:53;;;;;;;7.18;2.40;;;16.20;99.90;;;;;;4948193;28;20051;-78
2022/05/24 10:50:35;;;;;;;6.82;2.03;;;16.30;99.90;;;;;;4964682;28;20038;-78
2022/05/24 10:53:19;;;;;;;7.40;2.28;;;16.50;99.90;;;;;;4963408;28;20074;-78
2022/05/24 10:55:57;;;;;;;6.97;1.92;;;16.60;99.90;;;;;;4954587;28;20109;-78
2022/05/24 10:58:23;;;;;;;3.75;1.50;;;16.70;99.90;;;;;;4990436;28;20117;-78
2022/05/24 11:01:01;;;;;;;5.43;1.58;;;16.80;99.90;;;;;;4999447;28;20032;-78
2022/05/24 11:03:36;;;;;;;4.88;1.73;;;16.80;99.90;;;;;;5010301;28;20038;-78
2022/05/24 11:06:39;;;;;;;7.13;2.37;;;16.60;99.90;;;;;;5030589;28;20030;-79
2022/05/24 11:09:10;;;;;;;7.15;1.90;;;16.50;99.90;;;;;;5034294;28;20128;-78
2022/05/24 11:12:12;;;;;;;4.65;1.80;;;16.50;99.90;;;;;;5037710;28;20366;-76
2022/05/24 11:14:50;;;;;;;6.93;1.80;;;16.50;99.90;;;;;;5036694;28;20033;-75
2022/05/24 11:17:20;;;;;;;7.65;2.35;;;16.70;99.90;;;;;;5021238;28;20475;-77
2022/05/24 11:19:49;;;;;;;4.97;2.05;;;16.90;99.90;;;;;;5012863;28;20105;-77
2022/05/24 11:22:24;;;;;;;5.70;1.58;;;17.00;99.90;;;;;;5014336;28;20080;-77
2022/05/24 11:25:25;;;;;;;7.30;1.90;;;17.00;99.90;;;;;;5032573;28;20037;-77
2022/05/24 11:27:54;;;;;;;3.03;1.20;;;16.90;99.90;;;;;;5010521;28;20033;-76
2022/05/24 11:30:25;;;;;;;4.53;1.50;;;16.80;99.90;;;;;;5014454;28;20132;-78
2022/05/24 11:33:05;;;;;;;4.47;1.60;;;16.80;99.90;;;;;;5023893;28;20057;-77
2022/05/24 11:35:52;;;;;;;3.78;1.20;;;16.70;99.90;;;;;;5013896;28;20129;-77
2022/05/24 11:38:23;;;;;;;5.13;1.50;;;16.70;99.90;;;;;;5025165;28;20036;-77
2022/05/24 11:40:54;;;;;;;6.22;1.30;;;16.70;99.90;;;;;;5028287;28;20104;-77
2022/05/24 11:43:46;;;;;;;3.70;1.00;;;16.70;99.90;;;;;;5027642;28;20055;-77
2022/05/24 11:46:33;;;;;;;3.88;0.90;;;16.90;99.90;;;;;;5012333;28;20033;-77
2022/05/24 11:49:01;;;;;;;3.70;1.10;;;17.10;99.90;;;;;;5022696;28;20084;-76
2022/05/24 11:51:36;;;;;;;5.07;0.90;;;17.20;99.90;;;;;;5019170;28;20030;-77
2022/05/24 11:54:04;;;;;;;1.40;0.60;;;17.40;99.90;;;;;;5024891;28;20069;-77
2022/05/24 11:56:30;;;;;;;4.18;1.10;;;17.60;99.90;;;;;;5011007;28;20081;-76
2022/05/24 11:59:05;;;;;;;3.58;0.80;;;17.70;99.90;;;;;;5011179;28;20021;-77
2022/05/24 12:01:32;;;;;;;3.70;0.68;;;17.90;99.90;;;;;;5013478;28;20034;-77
2022/05/24 12:10:00;;;;;;;4.13;0.63;;;18.00;99.90;;;;;;5010945;28;20088;-77
2022/05/24 12:12:36;;;;;;;2.58;0.60;;;18.00;99.90;;;;;;5014789;28;20101;-77
2022/05/24 12:15:18;;;;;;;2.25;0.82;;;18.10;99.90;;;;;;5010892;28;20401;-77
2022/05/24 12:17:50;;;;;;;3.10;0.80;;;18.20;99.90;;;;;;5011923;28;20036;-76
2022/05/24 12:20:34;;;;;;;1.90;1.10;;;18.10;99.90;;;;;;5010609;28;20037;-74
2022/05/24 12:23:14;;;;;;;1.45;0.50;;;18.10;99.90;;;;;;5026808;28;20473;-75
2022/05/24 12:26:21;;;;;;;5.38;0.60;;;18.20;99.90;;;;;;5019572;28;20038;-76
2022/05/24 12:28:53;;;;;;;4.45;0.50;;;18.30;98.80;;;;;;5006346;28;20069;-76
2022/05/24 12:31:22;;;;;;;3.67;0.57;;;18.20;97.00;;;;;;5026487;28;20041;-76
2022/05/24 12:34:04;;;;;;;2.70;0.50;;;18.10;96.80;;;;;;5030128;28;20542;-76
2022/05/24 12:36:41;;;;;;;1.85;0.60;;;18.20;97.30;;;;;;5026194;28;20033;-76
2022/05/24 12:39:07;;;;;;;1.25;0.47;;;18.30;98.40;;;;;;5018369;28;20497;-77
2022/05/24 12:41:35;;;;;;;0.77;0.47;;;18.40;96.70;;;;;;5014808;28;20030;-77
2022/05/24 12:44:11;;;;;;;2.53;0.60;;;18.40;96.50;;;;;;5020914;28;20025;-77
2022/05/24 12:46:37;;;;;;;3.92;0.70;;;18.50;97.50;;;;;;5025504;28;20028;-76
2022/05/24 12:49:18;;;;;;;1.83;0.80;;;18.60;97.20;;;;;;5019825;28;20034;-77
2022/05/24 12:51:43;;;;;;;1.27;0.50;;;18.70;96.10;;;;;;5010443;28;20054;-79
2022/05/24 12:54:12;;;;;;;3.00;0.50;;;18.70;94.90;;;;;;5015813;28;20056;-77
2022/05/24 12:56:38;;;;;;;2.67;0.60;;;18.70;94.60;;;;;;5020617;28;20029;-78
2022/05/24 12:59:14;;;;;;;0.90;0.32;;;18.70;94.80;;;;;;5022428;28;20041;-77
2022/05/24 13:01:42;;;;;;;1.27;0.40;;;18.70;91.50;;;;;;5026104;28;20385;-78
2022/05/24 13:04:19;;;;;;;0.60;0.40;;;18.60;91.40;;;;;;5032711;28;20026;-78
2022/05/24 13:06:48;;;;;;;3.20;0.77;;;18.50;92.10;;;;;;5032881;28;20033;-78
2022/05/24 13:09:19;;;;;;;1.70;0.47;;;18.40;92.30;;;;;;5027865;28;20033;-77
2022/05/24 13:11:50;;;;;;;4.25;0.95;;;18.40;92.20;;;;;;5028174;28;20042;-77
2022/05/24 13:14:58;;;;;;;2.58;1.15;;;18.30;92.70;;;;;;5031921;28;20026;-77
2022/05/24 13:17:38;;;;;;;1.15;0.60;;;18.30;92.90;;;;;;5036917;28;20046;-74
2022/05/24 13:20:32;;;;;;;2.15;0.70;;;18.30;92.40;;;;;;5027412;28;20030;-75
2022/05/24 13:23:02;;;;;;;1.55;0.45;;;18.40;91.50;;;;;;5025152;28;20572;-75
2022/05/24 13:25:43;;;;;;;3.92;0.50;;;18.50;91.20;;;;;;5023960;28;20581;-76
2022/05/24 13:28:10;;;;;;;1.08;0.40;;;18.60;90.80;;;;;;5021306;28;20072;-76
2022/05/24 13:33:45;;;;;;;4.22;0.70;;;18.80;86.70;;;;;;5023532;28;20068;-76
2022/05/24 13:36:15;;;;;;;3.08;0.47;;;18.80;88.70;;;;;;5030912;28;20028;-76
2022/05/24 13:38:42;;;;;;;3.85;0.50;;;18.90;88.20;;;;;;5029877;28;20025;-75
2022/05/24 13:41:10;;;;;;;1.17;0.45;;;19.00;87.80;;;;;;5015249;28;20111;-74
2022/05/24 13:43:42;;;;;;;3.85;0.57;;;19.00;87.40;;;;;;5014655;28;20018;-76
2022/05/24 13:46:20;;;;;;;1.33;0.57;;;19.10;85.20;;;;;;5021171;28;20398;-75
2022/05/24 13:48:55;;;;;;;1.33;0.50;;;19.10;83.10;;;;;;5015898;28;20032;-74
2022/05/24 13:51:33;;;;;;;1.63;0.50;;;19.10;84.70;;;;;;5016992;28;20026;-76